Weather at Kvarnhem Flygfält

Public forecast

Using degrees Celsius for public forecast. Weather courtesy of forecast.io.

Closest aviation weather report (METAR) to Kvarnhem Flygfält

Closest report is Kristianstad Airport, 17.2 nm (31.9 km) ENE.

2024/05/20 06:20 (retrieved 26 minutes ago)

ESMK 200620Z VRB02KT CAVOK 16/12 Q1014

Closest aviation forecast (TAF) to Kvarnhem Flygfält

Closest forecast is Malmö Sturup Airport, 17.7 nm (32.7 km) SSW.

2024/05/20 06:34 (retrieved 12 minutes ago)

TAF ESMS 200505Z 2006/2106 VRB02KT CAVOK BECMG 2006/2009 07010KT TEMPO 2010/2015 FEW050CB